sensor_id;sensor_type;location;lat;lon;timestamp;P1;durP1;ratioP1;P2;durP2;ratioP2
30420;SDS011;17218;54.070;10.012;2023-04-03T00:00:16;2.37;;;1.23;;
30420;SDS011;17218;54.070;10.012;2023-04-03T00:02:43;4.27;;;1.47;;
30420;SDS011;17218;54.070;10.012;2023-04-03T00:05:11;5.03;;;1.30;;
30420;SDS011;17218;54.070;10.012;2023-04-03T00:07:37;3.87;;;1.07;;
30420;SDS011;17218;54.070;10.012;2023-04-03T00:10:04;4.20;;;1.50;;
30420;SDS011;17218;54.070;10.012;2023-04-03T00:12:31;3.57;;;1.37;;
30420;SDS011;17218;54.070;10.012;2023-04-03T00:14:58;5.60;;;2.03;;
30420;SDS011;17218;54.070;10.012;2023-04-03T00:17:24;3.07;;;1.20;;
30420;SDS011;17218;54.070;10.012;2023-04-03T00:19:51;2.80;;;1.10;;
30420;SDS011;17218;54.070;10.012;2023-04-03T00:22:19;2.47;;;1.30;;
30420;SDS011;17218;54.070;10.012;2023-04-03T00:24:45;2.90;;;1.07;;
30420;SDS011;17218;54.070;10.012;2023-04-03T00:27:12;5.00;;;1.70;;
30420;SDS011;17218;54.070;10.012;2023-04-03T00:29:38;4.90;;;1.37;;
30420;SDS011;17218;54.070;10.012;2023-04-03T00:32:04;2.87;;;1.30;;
30420;SDS011;17218;54.070;10.012;2023-04-03T00:34:31;4.40;;;1.60;;
30420;SDS011;17218;54.070;10.012;2023-04-03T00:36:58;5.43;;;2.20;;
30420;SDS011;17218;54.070;10.012;2023-04-03T00:39:26;2.87;;;1.47;;
30420;SDS011;17218;54.070;10.012;2023-04-03T00:41:52;3.80;;;2.00;;
30420;SDS011;17218;54.070;10.012;2023-04-03T00:44:22;4.23;;;1.57;;
30420;SDS011;17218;54.070;10.012;2023-04-03T00:47:27;5.07;;;1.77;;
30420;SDS011;17218;54.070;10.012;2023-04-03T00:49:55;3.80;;;1.50;;
30420;SDS011;17218;54.070;10.012;2023-04-03T00:52:25;3.10;;;1.73;;
30420;SDS011;17218;54.070;10.012;2023-04-03T00:54:57;3.40;;;1.80;;
30420;SDS011;17218;54.070;10.012;2023-04-03T00:57:28;6.07;;;1.97;;
30420;SDS011;17218;54.070;10.012;2023-04-03T00:59:57;4.50;;;1.47;;
30420;SDS011;17218;54.070;10.012;2023-04-03T01:02:28;2.93;;;1.90;;
30420;SDS011;17218;54.070;10.012;2023-04-03T01:04:54;2.43;;;1.50;;
30420;SDS011;17218;54.070;10.012;2023-04-03T01:07:22;3.63;;;1.70;;
30420;SDS011;17218;54.070;10.012;2023-04-03T01:09:51;2.90;;;1.40;;
30420;SDS011;17218;54.070;10.012;2023-04-03T01:12:23;4.37;;;1.40;;
30420;SDS011;17218;54.070;10.012;2023-04-03T01:14:52;3.37;;;1.67;;
30420;SDS011;17218;54.070;10.012;2023-04-03T01:17:26;2.67;;;1.63;;
30420;SDS011;17218;54.070;10.012;2023-04-03T01:19:57;6.40;;;1.50;;
30420;SDS011;17218;54.070;10.012;2023-04-03T01:22:50;3.57;;;1.50;;
30420;SDS011;17218;54.070;10.012;2023-04-03T01:25:22;3.17;;;1.47;;
30420;SDS011;17218;54.070;10.012;2023-04-03T01:27:50;3.90;;;1.87;;
30420;SDS011;17218;54.070;10.012;2023-04-03T01:30:18;2.23;;;1.37;;
30420;SDS011;17218;54.070;10.012;2023-04-03T01:32:47;3.43;;;1.40;;
30420;SDS011;17218;54.070;10.012;2023-04-03T01:35:14;3.07;;;1.67;;
30420;SDS011;17218;54.070;10.012;2023-04-03T01:37:40;2.73;;;1.53;;
30420;SDS011;17218;54.070;10.012;2023-04-03T01:40:07;4.10;;;1.60;;
30420;SDS011;17218;54.070;10.012;2023-04-03T01:42:34;2.60;;;1.83;;
30420;SDS011;17218;54.070;10.012;2023-04-03T01:45:00;5.40;;;1.23;;
30420;SDS011;17218;54.070;10.012;2023-04-03T01:47:27;3.13;;;1.83;;
30420;SDS011;17218;54.070;10.012;2023-04-03T01:49:55;3.40;;;1.53;;
30420;SDS011;17218;54.070;10.012;2023-04-03T01:52:21;3.40;;;1.77;;
30420;SDS011;17218;54.070;10.012;2023-04-03T01:54:48;2.47;;;1.47;;
30420;SDS011;17218;54.070;10.012;2023-04-03T01:57:15;2.83;;;1.23;;
30420;SDS011;17218;54.070;10.012;2023-04-03T01:59:41;2.97;;;1.77;;
30420;SDS011;17218;54.070;10.012;2023-04-03T02:02:08;1.83;;;1.27;;
30420;SDS011;17218;54.070;10.012;2023-04-03T02:04:37;2.97;;;1.33;;
30420;SDS011;17218;54.070;10.012;2023-04-03T02:07:05;2.50;;;1.53;;
30420;SDS011;17218;54.070;10.012;2023-04-03T02:09:31;3.03;;;1.37;;
30420;SDS011;17218;54.070;10.012;2023-04-03T02:11:58;3.80;;;1.67;;
30420;SDS011;17218;54.070;10.012;2023-04-03T02:14:24;6.27;;;1.80;;
30420;SDS011;17218;54.070;10.012;2023-04-03T02:16:52;4.87;;;1.67;;
30420;SDS011;17218;54.070;10.012;2023-04-03T02:19:19;5.80;;;1.50;;
30420;SDS011;17218;54.070;10.012;2023-04-03T02:21:45;5.47;;;2.33;;
30420;SDS011;17218;54.070;10.012;2023-04-03T02:24:13;3.00;;;1.33;;
30420;SDS011;17218;54.070;10.012;2023-04-03T02:26:39;5.77;;;1.63;;
30420;SDS011;17218;54.070;10.012;2023-04-03T02:29:06;3.43;;;1.53;;
30420;SDS011;17218;54.070;10.012;2023-04-03T02:31:32;2.50;;;1.50;;
30420;SDS011;17218;54.070;10.012;2023-04-03T02:33:59;3.40;;;1.53;;
30420;SDS011;17218;54.070;10.012;2023-04-03T02:36:25;4.03;;;1.73;;
30420;SDS011;17218;54.070;10.012;2023-04-03T02:38:52;5.07;;;1.70;;
30420;SDS011;17218;54.070;10.012;2023-04-03T02:41:19;4.43;;;1.40;;
30420;SDS011;17218;54.070;10.012;2023-04-03T02:43:47;2.13;;;1.40;;
30420;SDS011;17218;54.070;10.012;2023-04-03T02:46:13;2.13;;;1.60;;
30420;SDS011;17218;54.070;10.012;2023-04-03T02:48:40;2.87;;;1.27;;
30420;SDS011;17218;54.070;10.012;2023-04-03T02:51:06;3.30;;;1.30;;
30420;SDS011;17218;54.070;10.012;2023-04-03T02:53:33;3.13;;;1.90;;
30420;SDS011;17218;54.070;10.012;2023-04-03T02:56:00;2.20;;;1.40;;
30420;SDS011;17218;54.070;10.012;2023-04-03T02:58:27;4.07;;;2.03;;
30420;SDS011;17218;54.070;10.012;2023-04-03T03:00:54;5.13;;;2.00;;
30420;SDS011;17218;54.070;10.012;2023-04-03T03:03:20;2.57;;;1.43;;
30420;SDS011;17218;54.070;10.012;2023-04-03T03:05:47;2.90;;;2.00;;
30420;SDS011;17218;54.070;10.012;2023-04-03T03:14:34;1.80;;;1.33;;
30420;SDS011;17218;54.070;10.012;2023-04-03T03:17:00;4.10;;;1.60;;
30420;SDS011;17218;54.070;10.012;2023-04-03T03:19:27;9.67;;;4.53;;
30420;SDS011;17218;54.070;10.012;2023-04-03T03:21:53;8.00;;;3.10;;
30420;SDS011;17218;54.070;10.012;2023-04-03T03:24:20;4.43;;;2.43;;
30420;SDS011;17218;54.070;10.012;2023-04-03T03:26:46;4.03;;;2.00;;
30420;SDS011;17218;54.070;10.012;2023-04-03T03:29:13;3.70;;;1.80;;
30420;SDS011;17218;54.070;10.012;2023-04-03T03:31:40;5.10;;;2.50;;
30420;SDS011;17218;54.070;10.012;2023-04-03T03:34:07;5.43;;;2.07;;
30420;SDS011;17218;54.070;10.012;2023-04-03T03:36:33;6.80;;;2.63;;
30420;SDS011;17218;54.070;10.012;2023-04-03T03:39:00;3.93;;;2.00;;
30420;SDS011;17218;54.070;10.012;2023-04-03T03:41:26;5.83;;;2.30;;
30420;SDS011;17218;54.070;10.012;2023-04-03T03:43:53;3.70;;;3.03;;
30420;SDS011;17218;54.070;10.012;2023-04-03T03:46:19;4.20;;;2.37;;
30420;SDS011;17218;54.070;10.012;2023-04-03T03:48:47;4.43;;;2.00;;
30420;SDS011;17218;54.070;10.012;2023-04-03T03:51:14;2.77;;;1.93;;
30420;SDS011;17218;54.070;10.012;2023-04-03T03:53:40;6.83;;;1.93;;
30420;SDS011;17218;54.070;10.012;2023-04-03T03:56:07;5.50;;;1.87;;
30420;SDS011;17218;54.070;10.012;2023-04-03T03:58:33;4.43;;;1.80;;
30420;SDS011;17218;54.070;10.012;2023-04-03T04:01:00;6.07;;;1.97;;
30420;SDS011;17218;54.070;10.012;2023-04-03T04:03:27;2.67;;;1.80;;
30420;SDS011;17218;54.070;10.012;2023-04-03T04:05:55;6.73;;;2.43;;
30420;SDS011;17218;54.070;10.012;2023-04-03T04:08:22;3.70;;;1.83;;
30420;SDS011;17218;54.070;10.012;2023-04-03T04:10:48;3.40;;;2.20;;
30420;SDS011;17218;54.070;10.012;2023-04-03T04:13:15;4.23;;;1.93;;
30420;SDS011;17218;54.070;10.012;2023-04-03T04:15:41;5.93;;;1.90;;
30420;SDS011;17218;54.070;10.012;2023-04-03T04:18:08;3.93;;;2.30;;
30420;SDS011;17218;54.070;10.012;2023-04-03T04:20:34;4.43;;;2.10;;
30420;SDS011;17218;54.070;10.012;2023-04-03T04:23:02;4.83;;;1.77;;
30420;SDS011;17218;54.070;10.012;2023-04-03T04:25:29;5.17;;;2.20;;
30420;SDS011;17218;54.070;10.012;2023-04-03T04:27:55;5.00;;;2.57;;
30420;SDS011;17218;54.070;10.012;2023-04-03T04:30:22;4.23;;;1.87;;
30420;SDS011;17218;54.070;10.012;2023-04-03T04:32:48;3.77;;;1.90;;
30420;SDS011;17218;54.070;10.012;2023-04-03T04:35:15;4.43;;;2.30;;
30420;SDS011;17218;54.070;10.012;2023-04-03T04:37:41;4.10;;;1.93;;
30420;SDS011;17218;54.070;10.012;2023-04-03T04:40:10;3.30;;;1.97;;
30420;SDS011;17218;54.070;10.012;2023-04-03T04:42:37;5.60;;;2.20;;
30420;SDS011;17218;54.070;10.012;2023-04-03T04:45:04;5.60;;;2.30;;
30420;SDS011;17218;54.070;10.012;2023-04-03T04:47:31;4.07;;;2.23;;
30420;SDS011;17218;54.070;10.012;2023-04-03T04:49:57;5.70;;;2.33;;
30420;SDS011;17218;54.070;10.012;2023-04-03T04:52:24;5.33;;;2.50;;
30420;SDS011;17218;54.070;10.012;2023-04-03T04:54:50;3.63;;;2.10;;
30420;SDS011;17218;54.070;10.012;2023-04-03T04:57:18;2.87;;;1.80;;
30420;SDS011;17218;54.070;10.012;2023-04-03T04:59:45;4.77;;;2.70;;
30420;SDS011;17218;54.070;10.012;2023-04-03T05:02:11;4.47;;;2.17;;
30420;SDS011;17218;54.070;10.012;2023-04-03T05:04:37;6.40;;;2.50;;
30420;SDS011;17218;54.070;10.012;2023-04-03T05:07:04;5.10;;;2.10;;
30420;SDS011;17218;54.070;10.012;2023-04-03T05:09:31;3.80;;;2.50;;
30420;SDS011;17218;54.070;10.012;2023-04-03T05:11:57;2.90;;;2.00;;
30420;SDS011;17218;54.070;10.012;2023-04-03T05:14:25;5.67;;;2.43;;
30420;SDS011;17218;54.070;10.012;2023-04-03T05:16:51;3.97;;;2.27;;
30420;SDS011;17218;54.070;10.012;2023-04-03T05:19:19;6.10;;;2.30;;
30420;SDS011;17218;54.070;10.012;2023-04-03T05:21:45;3.10;;;2.23;;
30420;SDS011;17218;54.070;10.012;2023-04-03T05:24:12;7.93;;;2.70;;
30420;SDS011;17218;54.070;10.012;2023-04-03T05:26:39;5.50;;;2.77;;
30420;SDS011;17218;54.070;10.012;2023-04-03T05:29:06;5.33;;;2.27;;
30420;SDS011;17218;54.070;10.012;2023-04-03T05:31:34;2.67;;;1.90;;
30420;SDS011;17218;54.070;10.012;2023-04-03T05:34:01;3.43;;;2.10;;
30420;SDS011;17218;54.070;10.012;2023-04-03T05:36:27;4.30;;;2.70;;
30420;SDS011;17218;54.070;10.012;2023-04-03T05:38:54;3.27;;;2.23;;
30420;SDS011;17218;54.070;10.012;2023-04-03T05:41:22;7.97;;;2.50;;
30420;SDS011;17218;54.070;10.012;2023-04-03T05:43:48;6.87;;;2.33;;
30420;SDS011;17218;54.070;10.012;2023-04-03T05:46:16;4.53;;;1.97;;
30420;SDS011;17218;54.070;10.012;2023-04-03T05:48:45;7.30;;;2.40;;
30420;SDS011;17218;54.070;10.012;2023-04-03T05:51:13;6.90;;;2.70;;
30420;SDS011;17218;54.070;10.012;2023-04-03T05:53:42;10.30;;;3.30;;
30420;SDS011;17218;54.070;10.012;2023-04-03T05:56:09;5.57;;;2.83;;
30420;SDS011;17218;54.070;10.012;2023-04-03T05:58:36;6.23;;;2.97;;
30420;SDS011;17218;54.070;10.012;2023-04-03T06:01:02;5.00;;;2.83;;
30420;SDS011;17218;54.070;10.012;2023-04-03T06:03:30;3.10;;;2.53;;
30420;SDS011;17218;54.070;10.012;2023-04-03T06:05:58;4.43;;;2.40;;
30420;SDS011;17218;54.070;10.012;2023-04-03T06:08:24;2.77;;;2.07;;
30420;SDS011;17218;54.070;10.012;2023-04-03T06:10:51;4.13;;;2.10;;
30420;SDS011;17218;54.070;10.012;2023-04-03T06:13:17;4.23;;;2.40;;
30420;SDS011;17218;54.070;10.012;2023-04-03T06:15:44;3.40;;;2.20;;
30420;SDS011;17218;54.070;10.012;2023-04-03T06:18:11;3.13;;;2.50;;
30420;SDS011;17218;54.070;10.012;2023-04-03T06:20:38;7.03;;;2.63;;
30420;SDS011;17218;54.070;10.012;2023-04-03T06:23:06;7.50;;;2.70;;
30420;SDS011;17218;54.070;10.012;2023-04-03T06:25:32;6.57;;;2.50;;
30420;SDS011;17218;54.070;10.012;2023-04-03T06:27:59;3.50;;;2.20;;
30420;SDS011;17218;54.070;10.012;2023-04-03T06:30:25;5.03;;;2.27;;
30420;SDS011;17218;54.070;10.012;2023-04-03T06:32:52;3.43;;;2.37;;
30420;SDS011;17218;54.070;10.012;2023-04-03T06:35:18;4.20;;;2.70;;
30420;SDS011;17218;54.070;10.012;2023-04-03T06:37:45;5.93;;;2.40;;
30420;SDS011;17218;54.070;10.012;2023-04-03T06:40:15;5.83;;;2.10;;
30420;SDS011;17218;54.070;10.012;2023-04-03T06:42:46;6.40;;;1.70;;
30420;SDS011;17218;54.070;10.012;2023-04-03T06:45:13;7.60;;;2.47;;
30420;SDS011;17218;54.070;10.012;2023-04-03T06:47:39;5.63;;;2.57;;
30420;SDS011;17218;54.070;10.012;2023-04-03T06:50:06;4.83;;;2.37;;
30420;SDS011;17218;54.070;10.012;2023-04-03T06:52:34;2.40;;;2.00;;
30420;SDS011;17218;54.070;10.012;2023-04-03T06:55:00;3.57;;;2.20;;
30420;SDS011;17218;54.070;10.012;2023-04-03T06:57:28;4.73;;;2.10;;
30420;SDS011;17218;54.070;10.012;2023-04-03T06:59:55;4.80;;;2.30;;
30420;SDS011;17218;54.070;10.012;2023-04-03T07:02:22;2.97;;;2.10;;
30420;SDS011;17218;54.070;10.012;2023-04-03T07:04:48;5.27;;;2.27;;
30420;SDS011;17218;54.070;10.012;2023-04-03T07:07:15;5.27;;;2.70;;
30420;SDS011;17218;54.070;10.012;2023-04-03T07:09:42;4.87;;;2.43;;
30420;SDS011;17218;54.070;10.012;2023-04-03T07:12:09;3.93;;;2.27;;
30420;SDS011;17218;54.070;10.012;2023-04-03T07:14:37;6.57;;;2.50;;
30420;SDS011;17218;54.070;10.012;2023-04-03T07:17:03;4.37;;;2.03;;
30420;SDS011;17218;54.070;10.012;2023-04-03T07:19:30;4.40;;;2.23;;
30420;SDS011;17218;54.070;10.012;2023-04-03T07:21:56;6.00;;;2.70;;
30420;SDS011;17218;54.070;10.012;2023-04-03T07:24:23;5.97;;;2.80;;
30420;SDS011;17218;54.070;10.012;2023-04-03T07:26:49;7.20;;;2.53;;
30420;SDS011;17218;54.070;10.012;2023-04-03T07:29:16;6.27;;;1.77;;
30420;SDS011;17218;54.070;10.012;2023-04-03T07:31:44;5.17;;;2.60;;
30420;SDS011;17218;54.070;10.012;2023-04-03T07:34:10;4.60;;;1.70;;
30420;SDS011;17218;54.070;10.012;2023-04-03T07:36:37;4.03;;;1.70;;
30420;SDS011;17218;54.070;10.012;2023-04-03T07:39:03;3.50;;;1.63;;
30420;SDS011;17218;54.070;10.012;2023-04-03T07:41:31;4.93;;;1.50;;
30420;SDS011;17218;54.070;10.012;2023-04-03T07:43:58;2.57;;;1.10;;
30420;SDS011;17218;54.070;10.012;2023-04-03T07:46:25;3.37;;;1.10;;
30420;SDS011;17218;54.070;10.012;2023-04-03T07:48:53;1.60;;;1.00;;
30420;SDS011;17218;54.070;10.012;2023-04-03T07:51:19;3.23;;;1.20;;
30420;SDS011;17218;54.070;10.012;2023-04-03T07:53:46;2.00;;;0.67;;
30420;SDS011;17218;54.070;10.012;2023-04-03T07:56:13;3.63;;;1.07;;
30420;SDS011;17218;54.070;10.012;2023-04-03T07:58:40;3.43;;;0.90;;
30420;SDS011;17218;54.070;10.012;2023-04-03T08:01:06;4.17;;;1.00;;
30420;SDS011;17218;54.070;10.012;2023-04-03T08:03:33;4.07;;;0.80;;
30420;SDS011;17218;54.070;10.012;2023-04-03T08:06:02;3.50;;;1.10;;
30420;SDS011;17218;54.070;10.012;2023-04-03T08:08:30;6.67;;;1.33;;
30420;SDS011;17218;54.070;10.012;2023-04-03T08:10:58;4.40;;;1.10;;
30420;SDS011;17218;54.070;10.012;2023-04-03T08:13:25;2.47;;;1.00;;
30420;SDS011;17218;54.070;10.012;2023-04-03T08:15:52;4.07;;;1.00;;
30420;SDS011;17218;54.070;10.012;2023-04-03T08:18:19;1.33;;;0.60;;
30420;SDS011;17218;54.070;10.012;2023-04-03T08:20:49;5.50;;;1.10;;
30420;SDS011;17218;54.070;10.012;2023-04-03T08:23:17;4.53;;;1.40;;
30420;SDS011;17218;54.070;10.012;2023-04-03T08:25:44;2.80;;;0.93;;
30420;SDS011;17218;54.070;10.012;2023-04-03T08:28:10;5.10;;;0.90;;
30420;SDS011;17218;54.070;10.012;2023-04-03T08:30:38;3.70;;;1.30;;
30420;SDS011;17218;54.070;10.012;2023-04-03T08:33:05;6.73;;;2.03;;
30420;SDS011;17218;54.070;10.012;2023-04-03T08:35:32;1.73;;;0.90;;
30420;SDS011;17218;54.070;10.012;2023-04-03T08:37:58;3.93;;;1.20;;
30420;SDS011;17218;54.070;10.012;2023-04-03T08:40:27;4.03;;;1.20;;
30420;SDS011;17218;54.070;10.012;2023-04-03T08:42:59;3.80;;;1.57;;
30420;SDS011;17218;54.070;10.012;2023-04-03T08:45:42;2.93;;;1.10;;
30420;SDS011;17218;54.070;10.012;2023-04-03T08:48:12;1.90;;;1.00;;
30420;SDS011;17218;54.070;10.012;2023-04-03T08:50:46;5.00;;;1.20;;
30420;SDS011;17218;54.070;10.012;2023-04-03T08:53:17;1.97;;;1.00;;
30420;SDS011;17218;54.070;10.012;2023-04-03T08:55:48;2.73;;;1.20;;
30420;SDS011;17218;54.070;10.012;2023-04-03T08:58:18;3.00;;;1.27;;
30420;SDS011;17218;54.070;10.012;2023-04-03T09:00:46;1.93;;;0.77;;
30420;SDS011;17218;54.070;10.012;2023-04-03T09:03:16;1.80;;;0.80;;
30420;SDS011;17218;54.070;10.012;2023-04-03T09:05:46;3.93;;;0.97;;
30420;SDS011;17218;54.070;10.012;2023-04-03T09:08:18;1.87;;;1.20;;
30420;SDS011;17218;54.070;10.012;2023-04-03T09:10:50;3.80;;;1.10;;
30420;SDS011;17218;54.070;10.012;2023-04-03T09:13:24;3.40;;;0.90;;
30420;SDS011;17218;54.070;10.012;2023-04-03T09:15:56;1.73;;;0.83;;
30420;SDS011;17218;54.070;10.012;2023-04-03T09:18:23;2.50;;;0.90;;
30420;SDS011;17218;54.070;10.012;2023-04-03T09:20:58;2.15;;;0.85;;
30420;SDS011;17218;54.070;10.012;2023-04-03T09:23:34;4.77;;;0.90;;
30420;SDS011;17218;54.070;10.012;2023-04-03T09:26:14;0.80;;;0.80;;
30420;SDS011;17218;54.070;10.012;2023-04-03T09:28:44;1.55;;;0.88;;
30420;SDS011;17218;54.070;10.012;2023-04-03T09:31:14;1.90;;;0.80;;
30420;SDS011;17218;54.070;10.012;2023-04-03T09:33:45;3.95;;;0.80;;
30420;SDS011;17218;54.070;10.012;2023-04-03T09:36:12;2.30;;;0.90;;
30420;SDS011;17218;54.070;10.012;2023-04-03T09:38:39;1.60;;;0.88;;
30420;SDS011;17218;54.070;10.012;2023-04-03T09:41:06;3.58;;;0.82;;
30420;SDS011;17218;54.070;10.012;2023-04-03T09:43:41;2.55;;;1.02;;
30420;SDS011;17218;54.070;10.012;2023-04-03T09:46:28;2.85;;;1.10;;
30420;SDS011;17218;54.070;10.012;2023-04-03T09:48:57;2.03;;;1.07;;
30420;SDS011;17218;54.070;10.012;2023-04-03T09:51:25;1.45;;;0.85;;
30420;SDS011;17218;54.070;10.012;2023-04-03T09:53:53;2.05;;;0.90;;
30420;SDS011;17218;54.070;10.012;2023-04-03T09:56:22;1.65;;;1.25;;
30420;SDS011;17218;54.070;10.012;2023-04-03T09:59:03;2.45;;;1.45;;
30420;SDS011;17218;54.070;10.012;2023-04-03T10:01:34;2.85;;;1.30;;
30420;SDS011;17218;54.070;10.012;2023-04-03T10:04:05;2.78;;;1.20;;
30420;SDS011;17218;54.070;10.012;2023-04-03T10:06:34;1.63;;;1.02;;
30420;SDS011;17218;54.070;10.012;2023-04-03T10:09:06;3.13;;;1.10;;
30420;SDS011;17218;54.070;10.012;2023-04-03T10:11:56;2.15;;;0.90;;
30420;SDS011;17218;54.070;10.012;2023-04-03T10:14:26;2.67;;;1.10;;
30420;SDS011;17218;54.070;10.012;2023-04-03T10:16:53;3.13;;;0.85;;
30420;SDS011;17218;54.070;10.012;2023-04-03T10:19:32;1.35;;;0.60;;
30420;SDS011;17218;54.070;10.012;2023-04-03T10:22:08;3.03;;;0.93;;
30420;SDS011;17218;54.070;10.012;2023-04-03T10:24:50;2.60;;;0.75;;
30420;SDS011;17218;54.070;10.012;2023-04-03T10:27:24;3.08;;;0.75;;
30420;SDS011;17218;54.070;10.012;2023-04-03T10:30:04;1.67;;;1.08;;
30420;SDS011;17218;54.070;10.012;2023-04-03T10:32:48;1.38;;;0.80;;
30420;SDS011;17218;54.070;10.012;2023-04-03T10:35:25;2.22;;;1.25;;
30420;SDS011;17218;54.070;10.012;2023-04-03T10:38:04;1.98;;;0.82;;
30420;SDS011;17218;54.070;10.012;2023-04-03T10:40:43;1.83;;;0.80;;
30420;SDS011;17218;54.070;10.012;2023-04-03T10:43:20;1.88;;;0.85;;
30420;SDS011;17218;54.070;10.012;2023-04-03T10:45:57;3.05;;;1.20;;
30420;SDS011;17218;54.070;10.012;2023-04-03T10:48:33;2.33;;;0.85;;
30420;SDS011;17218;54.070;10.012;2023-04-03T10:51:12;2.85;;;0.73;;
30420;SDS011;17218;54.070;10.012;2023-04-03T10:53:49;2.63;;;0.80;;
30420;SDS011;17218;54.070;10.012;2023-04-03T10:56:24;2.47;;;0.63;;
30420;SDS011;17218;54.070;10.012;2023-04-03T10:58:56;3.15;;;0.98;;
30420;SDS011;17218;54.070;10.012;2023-04-03T11:01:29;2.65;;;0.80;;
30420;SDS011;17218;54.070;10.012;2023-04-03T11:03:59;1.35;;;0.70;;
30420;SDS011;17218;54.070;10.012;2023-04-03T11:06:31;2.72;;;0.77;;
30420;SDS011;17218;54.070;10.012;2023-04-03T11:09:03;2.28;;;0.75;;
30420;SDS011;17218;54.070;10.012;2023-04-03T11:11:37;3.88;;;1.08;;
30420;SDS011;17218;54.070;10.012;2023-04-03T11:14:09;1.17;;;0.70;;
30420;SDS011;17218;54.070;10.012;2023-04-03T11:16:45;2.10;;;1.10;;
30420;SDS011;17218;54.070;10.012;2023-04-03T11:19:15;1.25;;;0.65;;
30420;SDS011;17218;54.070;10.012;2023-04-03T11:21:49;1.92;;;0.95;;
30420;SDS011;17218;54.070;10.012;2023-04-03T11:24:20;3.58;;;0.90;;
30420;SDS011;17218;54.070;10.012;2023-04-03T11:26:50;2.47;;;0.80;;
30420;SDS011;17218;54.070;10.012;2023-04-03T11:29:19;2.88;;;0.80;;
30420;SDS011;17218;54.070;10.012;2023-04-03T11:31:56;1.42;;;0.90;;
30420;SDS011;17218;54.070;10.012;2023-04-03T11:34:36;3.90;;;1.15;;
30420;SDS011;17218;54.070;10.012;2023-04-03T11:37:11;2.45;;;0.88;;
30420;SDS011;17218;54.070;10.012;2023-04-03T11:39:51;2.70;;;1.00;;
30420;SDS011;17218;54.070;10.012;2023-04-03T11:42:25;2.33;;;1.67;;
30420;SDS011;17218;54.070;10.012;2023-04-03T11:45:16;3.05;;;1.10;;
30420;SDS011;17218;54.070;10.012;2023-04-03T11:47:53;1.30;;;0.85;;
30420;SDS011;17218;54.070;10.012;2023-04-03T11:50:31;1.00;;;0.70;;
30420;SDS011;17218;54.070;10.012;2023-04-03T11:56:00;2.63;;;1.00;;
30420;SDS011;17218;54.070;10.012;2023-04-03T11:58:29;2.30;;;0.90;;
30420;SDS011;17218;54.070;10.012;2023-04-03T12:01:04;3.38;;;1.10;;
30420;SDS011;17218;54.070;10.012;2023-04-03T12:03:55;3.75;;;1.17;;
30420;SDS011;17218;54.070;10.012;2023-04-03T12:12:28;2.58;;;1.15;;
30420;SDS011;17218;54.070;10.012;2023-04-03T12:21:10;1.55;;;0.90;;
30420;SDS011;17218;54.070;10.012;2023-04-03T12:26:26;1.98;;;0.90;;
30420;SDS011;17218;54.070;10.012;2023-04-03T12:28:56;1.55;;;1.00;;
30420;SDS011;17218;54.070;10.012;2023-04-03T12:31:24;3.42;;;1.20;;
30420;SDS011;17218;54.070;10.012;2023-04-03T12:34:06;2.70;;;1.05;;
30420;SDS011;17218;54.070;10.012;2023-04-03T12:36:46;2.30;;;1.05;;
30420;SDS011;17218;54.070;10.012;2023-04-03T12:39:40;1.75;;;0.80;;
30420;SDS011;17218;54.070;10.012;2023-04-03T12:42:24;1.58;;;1.00;;
30420;SDS011;17218;54.070;10.012;2023-04-03T12:44:59;3.03;;;1.50;;
30420;SDS011;17218;54.070;10.012;2023-04-03T12:47:36;1.83;;;0.82;;
30420;SDS011;17218;54.070;10.012;2023-04-03T12:50:16;1.83;;;1.00;;
30420;SDS011;17218;54.070;10.012;2023-04-03T12:52:47;3.08;;;1.05;;
30420;SDS011;17218;54.070;10.012;2023-04-03T12:55:21;0.82;;;0.70;;
30420;SDS011;17218;54.070;10.012;2023-04-03T12:57:49;1.73;;;1.02;;
30420;SDS011;17218;54.070;10.012;2023-04-03T13:00:27;2.08;;;1.00;;
30420;SDS011;17218;54.070;10.012;2023-04-03T13:02:55;1.80;;;1.00;;
30420;SDS011;17218;54.070;10.012;2023-04-03T13:05:22;1.05;;;0.80;;
30420;SDS011;17218;54.070;10.012;2023-04-03T13:07:50;1.88;;;0.77;;
30420;SDS011;17218;54.070;10.012;2023-04-03T13:10:22;1.88;;;0.80;;
30420;SDS011;17218;54.070;10.012;2023-04-03T13:12:50;1.38;;;0.93;;
30420;SDS011;17218;54.070;10.012;2023-04-03T13:15:19;2.30;;;1.20;;
30420;SDS011;17218;54.070;10.012;2023-04-03T13:17:47;2.08;;;1.20;;
30420;SDS011;17218;54.070;10.012;2023-04-03T13:20:18;2.13;;;0.80;;
30420;SDS011;17218;54.070;10.012;2023-04-03T13:22:48;3.75;;;0.90;;
30420;SDS011;17218;54.070;10.012;2023-04-03T13:25:18;3.22;;;1.23;;
30420;SDS011;17218;54.070;10.012;2023-04-03T13:27:47;2.10;;;1.00;;
30420;SDS011;17218;54.070;10.012;2023-04-03T13:30:23;2.25;;;1.00;;
30420;SDS011;17218;54.070;10.012;2023-04-03T13:32:52;1.40;;;1.05;;
30420;SDS011;17218;54.070;10.012;2023-04-03T13:35:31;2.00;;;1.02;;
30420;SDS011;17218;54.070;10.012;2023-04-03T13:38:04;3.80;;;0.90;;
30420;SDS011;17218;54.070;10.012;2023-04-03T13:40:33;2.33;;;0.95;;
30420;SDS011;17218;54.070;10.012;2023-04-03T13:43:16;1.33;;;0.77;;
30420;SDS011;17218;54.070;10.012;2023-04-03T13:45:54;2.22;;;0.85;;
30420;SDS011;17218;54.070;10.012;2023-04-03T13:48:23;2.45;;;1.40;;
30420;SDS011;17218;54.070;10.012;2023-04-03T13:50:51;1.27;;;0.90;;
30420;SDS011;17218;54.070;10.012;2023-04-03T13:53:20;1.05;;;0.63;;
30420;SDS011;17218;54.070;10.012;2023-04-03T13:55:52;2.08;;;0.98;;
30420;SDS011;17218;54.070;10.012;2023-04-03T13:58:35;1.60;;;0.93;;
30420;SDS011;17218;54.070;10.012;2023-04-03T14:01:08;1.30;;;0.70;;
30420;SDS011;17218;54.070;10.012;2023-04-03T14:03:40;2.40;;;0.90;;
30420;SDS011;17218;54.070;10.012;2023-04-03T14:06:20;1.23;;;0.88;;
30420;SDS011;17218;54.070;10.012;2023-04-03T14:08:47;1.65;;;0.90;;
30420;SDS011;17218;54.070;10.012;2023-04-03T14:11:14;2.05;;;0.90;;
30420;SDS011;17218;54.070;10.012;2023-04-03T14:13:44;1.55;;;0.90;;
30420;SDS011;17218;54.070;10.012;2023-04-03T14:16:14;2.38;;;0.98;;
30420;SDS011;17218;54.070;10.012;2023-04-03T14:18:41;1.92;;;0.82;;
30420;SDS011;17218;54.070;10.012;2023-04-03T14:21:09;2.35;;;1.00;;
30420;SDS011;17218;54.070;10.012;2023-04-03T14:23:37;3.38;;;0.85;;
30420;SDS011;17218;54.070;10.012;2023-04-03T14:26:04;1.88;;;0.95;;
30420;SDS011;17218;54.070;10.012;2023-04-03T14:28:35;3.50;;;1.88;;
30420;SDS011;17218;54.070;10.012;2023-04-03T14:31:02;2.50;;;1.10;;
30420;SDS011;17218;54.070;10.012;2023-04-03T14:33:30;2.08;;;1.17;;
30420;SDS011;17218;54.070;10.012;2023-04-03T14:35:59;1.35;;;1.00;;
30420;SDS011;17218;54.070;10.012;2023-04-03T14:38:29;1.55;;;1.00;;
30420;SDS011;17218;54.070;10.012;2023-04-03T14:40:56;2.38;;;1.27;;
30420;SDS011;17218;54.070;10.012;2023-04-03T14:43:24;1.27;;;1.10;;
30420;SDS011;17218;54.070;10.012;2023-04-03T14:45:51;2.20;;;0.80;;
30420;SDS011;17218;54.070;10.012;2023-04-03T14:48:19;1.75;;;1.10;;
30420;SDS011;17218;54.070;10.012;2023-04-03T14:50:48;1.58;;;0.90;;
30420;SDS011;17218;54.070;10.012;2023-04-03T14:53:16;2.17;;;1.00;;
30420;SDS011;17218;54.070;10.012;2023-04-03T14:55:47;2.90;;;1.20;;
30420;SDS011;17218;54.070;10.012;2023-04-03T14:58:15;4.38;;;1.20;;
30420;SDS011;17218;54.070;10.012;2023-04-03T15:00:43;1.20;;;0.80;;
30420;SDS011;17218;54.070;10.012;2023-04-03T15:03:12;1.95;;;1.30;;
30420;SDS011;17218;54.070;10.012;2023-04-03T15:05:40;2.40;;;0.88;;
30420;SDS011;17218;54.070;10.012;2023-04-03T15:08:11;2.45;;;1.30;;
30420;SDS011;17218;54.070;10.012;2023-04-03T15:10:45;1.67;;;0.88;;